メインページ
METAR-TAF:

METAR-TAF

空港 :

メヘラーバード国際空港

テヘラン, イラン

緯度: 35-41N, 経度: 051-21E, 海抜: 1204m

現時点の気象観測

当レポートは42分前の05:00(UTC)に作成
南東の風 10kt
気温 7°C
湿度 49%
気圧 1017 hPa
視程10km以上
高度3500ftの雲はほとんどない
高度10000ftの雲は散在している
高度19000ftの千切れ雲あり

METAR: OIII 210500Z 14010KT 9999 FEW035 SCT100 BKN190 07/M03 Q1017 A3004 NOSIG

時間: 09:12 (05:42 UTC)

予報

当レポートは6時間27分前の23:15(UTC)に作成
予報は21日の 00時(UTC)から 22日の 06時(UTC)まで有効
西/北西の風 8kt
視程: 8000m
高度3500ftの雲はほとんどない
高度10000ftの雲は散在している
21日の 09時(UTC)から 21日の 15時(UTC)まで一時的に
西の風 18kt
高度3500ftの雲はほとんどない, 積乱雲.
高度4000ftの雲は散在している
高度10000ftの千切れ雲あり
にわか雨

TAF: OIII 202315Z 2100/2206 30008KT 8000 FEW035 SCT100 TEMPO 2109/2115 27018KT SHRA FEW035CB SCT040 BKN100

4,000以上の空港の気象観測と天気予報(METAR報とTAF報)

利用可能な観測所は地図上に黄色い丸と赤い丸で示す。

丸の上にカーソルを重ねると観測所名を参照できる。

次にクリックすると気象観測と天気予報を参照できる。

マップの切り替え:黒色「×」印の緑ボタンをクリックして拡大、「-」印の緑ボタンをクリックして縮小、緑色の三角印をクリックして隣りの地図に切り替え


METAR-TAF: